createdAt,value
2018-05-12T00:01:50.354Z,10.80
2018-05-12T00:04:18.667Z,12.93
2018-05-12T00:06:46.973Z,12.13
2018-05-12T00:09:15.310Z,11.30
2018-05-12T00:11:43.623Z,12.80
2018-05-12T00:14:12.724Z,12.53
2018-05-12T00:16:41.798Z,13.73
2018-05-12T00:19:10.148Z,12.73
2018-05-12T00:21:38.471Z,13.47
2018-05-12T00:24:07.597Z,13.33
2018-05-12T00:26:36.668Z,14.17
2018-05-12T00:29:05.768Z,14.47
2018-05-12T00:31:34.866Z,13.97
2018-05-12T00:34:03.959Z,13.83
2018-05-12T00:36:32.286Z,16.03
2018-05-12T00:39:00.602Z,14.23
2018-05-12T00:41:29.020Z,14.10
2018-05-12T00:43:58.101Z,14.53
2018-05-12T00:46:28.207Z,16.10
2018-05-12T00:48:56.530Z,16.43
2018-05-12T00:51:25.627Z,16.90
2018-05-12T00:53:54.694Z,17.60
2018-05-12T00:56:23.032Z,17.03
2018-05-12T00:58:51.396Z,16.87
2018-05-12T01:01:19.761Z,15.87
2018-05-12T01:03:48.840Z,18.67
2018-05-12T01:06:17.160Z,16.00
2018-05-12T01:08:45.486Z,18.33
2018-05-12T01:11:13.793Z,18.13
2018-05-12T01:13:42.985Z,17.40
2018-05-12T01:16:11.260Z,17.90
2018-05-12T01:18:39.628Z,20.00
2018-05-12T01:21:07.970Z,17.90
2018-05-12T01:23:36.315Z,19.33
2018-05-12T01:26:04.647Z,17.50
2018-05-12T01:28:32.958Z,17.80
2018-05-12T01:31:01.288Z,18.37
2018-05-12T01:33:30.383Z,20.13
2018-05-12T01:35:59.490Z,22.20
2018-05-12T01:38:28.572Z,20.70
2018-05-12T01:40:56.920Z,21.97
2018-05-12T01:43:25.232Z,22.57
2018-05-12T01:45:54.370Z,21.03
2018-05-12T01:48:22.680Z,22.63
2018-05-12T01:50:51.037Z,24.47
2018-05-12T01:53:19.393Z,21.87
2018-05-12T01:55:47.732Z,22.00
2018-05-12T01:58:16.076Z,21.17
2018-05-12T02:00:44.389Z,22.27
2018-05-12T02:03:13.660Z,23.37
2018-05-12T02:05:41.976Z,23.60
2018-05-12T02:08:10.309Z,20.17
2018-05-12T02:10:38.626Z,23.87
2018-05-12T02:13:06.957Z,23.90
2018-05-12T02:15:36.118Z,24.63
2018-05-12T02:18:04.466Z,24.67
2018-05-12T02:20:32.777Z,22.40
2018-05-12T02:23:01.098Z,22.07
2018-05-12T02:25:30.236Z,25.17
2018-05-12T02:27:58.554Z,24.63
2018-05-12T02:30:26.951Z,25.40
2018-05-12T02:32:55.250Z,27.10
2018-05-12T02:35:25.319Z,26.37
2018-05-12T02:37:53.633Z,25.97
2018-05-12T02:40:22.141Z,26.97
2018-05-12T02:42:51.213Z,28.13
2018-05-12T02:45:19.555Z,28.07
2018-05-12T02:47:48.954Z,27.17
2018-05-12T02:50:17.299Z,26.47
2018-05-12T02:52:46.496Z,27.93
2018-05-12T02:55:14.909Z,24.97
2018-05-12T02:57:43.379Z,28.40
2018-05-12T03:00:11.832Z,27.80
2018-05-12T03:02:40.167Z,27.53
2018-05-12T03:05:08.877Z,28.63
2018-05-12T03:07:37.784Z,30.07
2018-05-12T03:10:06.279Z,29.07
2018-05-12T03:12:34.703Z,28.70
2018-05-12T03:15:03.003Z,28.50
2018-05-12T03:17:31.342Z,28.87
2018-05-12T03:19:59.668Z,28.57
2018-05-12T03:22:27.997Z,31.93
2018-05-12T03:24:57.817Z,31.50
2018-05-12T03:27:26.152Z,30.73
2018-05-12T03:29:54.464Z,32.77
2018-05-12T03:32:22.874Z,29.20
2018-05-12T03:34:51.960Z,31.77
2018-05-12T03:37:22.799Z,31.53
2018-05-12T03:39:51.115Z,30.93
2018-05-12T03:42:19.432Z,29.33
2018-05-12T03:44:47.768Z,28.60
2018-05-12T03:47:16.908Z,30.70
2018-05-12T03:49:45.260Z,28.00
2018-05-12T03:52:13.571Z,26.10
2018-05-12T03:54:41.911Z,29.47
2018-05-12T03:57:10.222Z,26.13
2018-05-12T03:59:38.584Z,29.63
2018-05-12T04:02:06.897Z,28.40
2018-05-12T04:04:47.330Z,27.90
2018-05-12T04:07:27.487Z,24.83
2018-05-12T04:10:08.508Z,26.30
2018-05-12T04:12:39.312Z,23.53
2018-05-12T04:15:07.650Z,24.93
2018-05-12T04:17:36.712Z,27.10
2018-05-12T04:20:05.038Z,27.17
2018-05-12T04:22:33.369Z,28.27
2018-05-12T04:25:01.806Z,30.63
2018-05-12T04:27:30.117Z,30.13
2018-05-12T04:29:58.425Z,30.63
2018-05-12T04:32:26.777Z,28.57
2018-05-12T04:34:55.081Z,28.13
2018-05-12T04:37:23.415Z,25.10
2018-05-12T04:39:51.738Z,24.13
2018-05-12T04:42:20.075Z,24.37
2018-05-12T04:44:48.374Z,26.10
2018-05-12T04:47:16.765Z,25.93
2018-05-12T04:49:45.092Z,26.53
2018-05-12T04:52:13.431Z,26.47
2018-05-12T04:54:41.747Z,26.53
2018-05-12T04:57:10.074Z,26.03
2018-05-12T04:59:38.399Z,28.63
2018-05-12T05:02:06.744Z,27.40
2018-05-12T05:04:35.155Z,26.57
2018-05-12T05:07:03.465Z,26.37
2018-05-12T05:09:31.824Z,27.73
2018-05-12T05:12:00.129Z,25.23
2018-05-12T05:14:28.435Z,25.63
2018-05-12T05:16:56.775Z,25.60
2018-05-12T05:19:25.123Z,26.57
2018-05-12T05:21:53.448Z,28.27
2018-05-12T05:24:21.853Z,25.37
2018-05-12T05:26:50.935Z,24.63
2018-05-12T05:29:19.247Z,24.07
2018-05-12T05:31:47.591Z,24.47
2018-05-12T05:34:15.937Z,23.23
2018-05-12T05:36:44.259Z,24.07
2018-05-12T05:39:12.563Z,24.93
2018-05-12T05:41:41.002Z,25.67
2018-05-12T05:44:10.031Z,25.53
2018-05-12T05:46:39.151Z,26.07
2018-05-12T05:49:07.484Z,26.07
2018-05-12T05:51:35.835Z,27.20
2018-05-12T05:54:04.183Z,26.57
2018-05-12T05:56:33.279Z,25.83
2018-05-12T05:59:01.621Z,27.83
2018-05-12T06:01:29.939Z,27.43
2018-05-12T06:03:59.023Z,26.83
2018-05-12T06:06:27.376Z,29.07
2018-05-12T06:08:55.707Z,27.33
2018-05-12T06:11:24.770Z,28.17
2018-05-12T06:13:53.114Z,27.20
2018-05-12T06:16:21.439Z,29.33
2018-05-12T06:18:49.760Z,29.23
2018-05-12T06:21:18.076Z,28.90
2018-05-12T06:23:46.427Z,30.87
2018-05-12T06:26:14.730Z,27.70
2018-05-12T06:28:43.162Z,28.10
2018-05-12T06:31:12.282Z,25.87
2018-05-12T06:33:42.352Z,25.13
2018-05-12T06:36:10.684Z,23.77
2018-05-12T06:38:41.035Z,20.97
2018-05-12T06:41:11.043Z,21.27
2018-05-12T06:43:40.284Z,20.50
2018-05-12T06:46:08.686Z,22.17
2018-05-12T06:48:37.010Z,19.60
2018-05-12T06:51:05.547Z,19.67
2018-05-12T06:53:34.195Z,19.60
2018-05-12T06:56:03.581Z,19.43
2018-05-12T06:58:32.409Z,18.93
2018-05-12T07:01:00.822Z,18.70
2018-05-12T07:03:29.132Z,19.40
2018-05-12T07:05:58.215Z,18.50
2018-05-12T07:08:27.326Z,21.20
2018-05-12T07:10:56.403Z,19.13
2018-05-12T07:13:24.768Z,22.47
2018-05-12T07:15:53.126Z,21.47
2018-05-12T07:18:21.458Z,22.57
2018-05-12T07:20:50.546Z,24.63
2018-05-12T07:23:18.892Z,21.67
2018-05-12T07:25:47.211Z,19.90
2018-05-12T07:28:15.561Z,19.50
2018-05-12T07:30:43.879Z,21.20
2018-05-12T07:33:12.239Z,20.70
2018-05-12T07:35:40.566Z,19.17
2018-05-12T07:38:09.636Z,19.23
2018-05-12T07:40:39.480Z,18.97
2018-05-12T07:43:08.564Z,19.27
2018-05-12T07:45:37.708Z,18.93
2018-05-12T07:48:06.043Z,19.57
2018-05-12T07:53:13.267Z,19.47
2018-05-12T07:55:42.386Z,18.93
2018-05-12T07:58:10.695Z,17.37
2018-05-12T08:00:39.021Z,18.73
2018-05-12T08:03:08.104Z,21.33
2018-05-12T08:05:36.450Z,19.87
2018-05-12T08:08:04.760Z,20.73
2018-05-12T08:10:33.910Z,20.90
2018-05-12T08:13:02.228Z,21.37
2018-05-12T08:15:30.545Z,20.90
2018-05-12T08:17:59.632Z,19.77
2018-05-12T08:20:28.721Z,18.53
2018-05-12T08:22:57.062Z,20.23
2018-05-12T08:25:25.409Z,20.03
2018-05-12T08:27:54.520Z,20.00
2018-05-12T08:30:22.847Z,20.17
2018-05-12T08:32:51.187Z,19.53
2018-05-12T08:35:19.518Z,20.03
2018-05-12T08:37:47.868Z,19.43
2018-05-12T08:40:16.187Z,20.57
2018-05-12T08:42:44.498Z,21.97
2018-05-12T08:45:12.838Z,19.43
2018-05-12T08:47:41.162Z,18.80
2018-05-12T08:50:10.295Z,18.90
2018-05-12T08:52:39.211Z,21.10
2018-05-12T08:55:07.570Z,19.07
2018-05-12T08:57:35.893Z,19.10
2018-05-12T09:00:04.301Z,19.03
2018-05-12T09:02:33.392Z,17.63
2018-05-12T09:05:02.705Z,17.60
2018-05-12T09:07:32.066Z,15.87
2018-05-12T09:10:00.751Z,14.40
2018-05-12T09:12:29.185Z,16.53
2018-05-12T09:14:57.510Z,15.53
2018-05-12T09:17:25.860Z,13.77
2018-05-12T09:19:54.180Z,15.63
2018-05-12T09:22:22.607Z,14.57
2018-05-12T09:24:50.940Z,14.43
2018-05-12T09:27:19.270Z,15.67
2018-05-12T09:29:48.358Z,15.00
2018-05-12T09:32:17.460Z,15.23
2018-05-12T09:34:46.552Z,16.27
2018-05-12T09:37:14.909Z,13.43
2018-05-12T09:39:43.344Z,12.53
2018-05-12T09:42:11.740Z,14.53
2018-05-12T09:44:40.067Z,13.65
2018-05-12T09:47:08.370Z,13.62
2018-05-12T09:49:37.477Z,12.48
2018-05-12T09:52:06.558Z,13.38
2018-05-12T09:54:34.896Z,13.70
2018-05-12T09:57:03.251Z,12.27
2018-05-12T09:59:32.278Z,13.32
2018-05-12T10:02:00.597Z,12.30
2018-05-12T10:04:30.209Z,10.80
2018-05-12T10:06:59.434Z,11.65
2018-05-12T10:09:29.511Z,11.57
2018-05-12T10:11:57.989Z,12.35
2018-05-12T10:14:26.615Z,11.48
2018-05-12T10:16:55.677Z,11.05
2018-05-12T10:19:24.124Z,11.60
2018-05-12T10:21:52.635Z,12.43
2018-05-12T10:24:22.182Z,10.63
2018-05-12T10:26:50.511Z,10.40
2018-05-12T10:29:18.822Z,11.10
2018-05-12T10:31:47.324Z,11.17
2018-05-12T10:34:15.771Z,11.12
2018-05-12T10:36:44.102Z,11.73
2018-05-12T10:39:12.431Z,12.17
2018-05-12T10:41:40.777Z,12.37
2018-05-12T10:44:10.127Z,10.93
2018-05-12T10:46:38.471Z,12.37
2018-05-12T10:49:06.804Z,11.60
2018-05-12T10:51:35.149Z,12.33
2018-05-12T10:54:03.470Z,11.70
2018-05-12T10:56:31.949Z,10.97
2018-05-12T10:59:00.299Z,13.10
2018-05-12T11:01:28.631Z,12.33
2018-05-12T11:03:56.979Z,13.23
2018-05-12T11:06:25.333Z,12.63
2018-05-12T11:08:54.593Z,11.93
2018-05-12T11:11:24.601Z,11.83
2018-05-12T11:13:52.981Z,11.83
2018-05-12T11:16:21.337Z,12.20
2018-05-12T11:18:49.674Z,11.27
2018-05-12T11:21:18.011Z,9.30
2018-05-12T11:23:46.385Z,10.93
2018-05-12T11:26:14.709Z,12.33
2018-05-12T11:28:43.994Z,10.17
2018-05-12T11:31:12.350Z,9.60
2018-05-12T11:33:40.670Z,11.27
2018-05-12T11:36:09.003Z,10.60
2018-05-12T11:38:37.759Z,10.77
2018-05-12T11:41:06.500Z,10.70
2018-05-12T11:43:35.866Z,8.90
2018-05-12T11:46:04.566Z,7.80
2018-05-12T11:48:33.988Z,8.27
2018-05-12T11:51:02.648Z,7.70
2018-05-12T11:53:31.061Z,6.37
2018-05-12T11:55:59.403Z,7.83
2018-05-12T11:58:27.897Z,8.23
2018-05-12T12:00:56.345Z,8.27
2018-05-12T12:03:25.024Z,9.80
2018-05-12T12:05:53.841Z,9.33
2018-05-12T12:08:23.517Z,9.93
2018-05-12T12:10:52.127Z,10.03
2018-05-12T12:13:20.716Z,11.37
2018-05-12T12:15:49.055Z,12.17
2018-05-12T12:18:17.413Z,11.63
2018-05-12T12:20:46.526Z,12.10
2018-05-12T12:23:15.632Z,11.17
2018-05-12T12:25:44.061Z,10.87
2018-05-12T12:28:12.407Z,9.90
2018-05-12T12:30:40.748Z,9.10
2018-05-12T12:33:09.845Z,8.43
2018-05-12T12:35:38.160Z,8.70
2018-05-12T12:38:07.253Z,7.80
2018-05-12T12:40:36.325Z,8.87
2018-05-12T12:43:05.415Z,9.70
2018-05-12T12:45:33.887Z,8.70
2018-05-12T12:48:02.210Z,7.90
2018-05-12T12:50:31.299Z,9.07
2018-05-12T12:52:59.604Z,8.57
2018-05-12T12:55:27.954Z,8.77
2018-05-12T12:57:56.269Z,7.90
2018-05-12T13:00:24.606Z,8.20
2018-05-12T13:02:52.987Z,8.47
2018-05-12T13:05:21.335Z,8.53
2018-05-12T13:07:49.645Z,8.53
2018-05-12T13:10:18.224Z,9.10
2018-05-12T13:12:46.581Z,9.53
2018-05-12T13:15:15.766Z,8.50
2018-05-12T13:17:44.201Z,8.20
2018-05-12T13:20:13.256Z,7.53
2018-05-12T13:22:41.610Z,7.10
2018-05-12T13:25:11.034Z,6.93
2018-05-12T13:27:40.123Z,7.90
2018-05-12T13:30:09.229Z,8.63
2018-05-12T13:32:37.689Z,8.07
2018-05-12T13:35:06.187Z,8.10
2018-05-12T13:37:34.837Z,9.03
2018-05-12T13:40:03.217Z,8.50
2018-05-12T13:42:31.571Z,8.10
2018-05-12T13:44:59.896Z,8.50
2018-05-12T13:47:28.225Z,9.13
2018-05-12T13:49:56.543Z,8.67
2018-05-12T13:52:24.873Z,9.00
2018-05-12T13:54:54.004Z,8.13
2018-05-12T13:57:22.325Z,7.30
2018-05-12T13:59:50.647Z,8.53
2018-05-12T14:02:18.975Z,7.60
2018-05-12T14:04:47.295Z,8.67
2018-05-12T14:07:16.462Z,8.00
2018-05-12T14:09:44.791Z,8.40
2018-05-12T14:12:13.159Z,7.80
2018-05-12T14:14:42.237Z,6.17
2018-05-12T14:17:10.574Z,7.57
2018-05-12T14:19:38.871Z,8.10
2018-05-12T14:22:07.216Z,6.57
2018-05-12T14:24:35.581Z,7.17
2018-05-12T14:27:04.648Z,6.50
2018-05-12T14:29:32.986Z,6.73
2018-05-12T14:32:01.327Z,7.60
2018-05-12T14:34:29.662Z,6.67
2018-05-12T14:36:57.979Z,6.83
2018-05-12T14:39:26.330Z,7.23
2018-05-12T14:41:54.636Z,6.60
2018-05-12T14:44:22.986Z,6.67
2018-05-12T14:46:51.299Z,6.63
2018-05-12T14:49:19.643Z,6.73
2018-05-12T14:51:47.948Z,6.30
2018-05-12T14:54:16.291Z,5.77
2018-05-12T14:56:44.592Z,6.23
2018-05-12T14:59:12.899Z,6.90
2018-05-12T15:01:41.206Z,6.53
2018-05-12T15:04:10.308Z,6.57
2018-05-12T15:06:39.403Z,5.93
2018-05-12T15:09:07.714Z,7.90
2018-05-12T15:11:36.808Z,6.13
2018-05-12T15:14:05.148Z,6.37
2018-05-12T15:16:33.471Z,6.03
2018-05-12T15:19:02.564Z,5.80
2018-05-12T15:21:31.656Z,6.27
2018-05-12T15:24:00.739Z,6.20
2018-05-12T15:26:29.081Z,5.97
2018-05-12T15:28:57.399Z,6.17
2018-05-12T15:31:26.743Z,5.70
2018-05-12T15:33:55.064Z,5.53
2018-05-12T15:36:23.400Z,29.93
2018-05-12T15:38:51.708Z,7.53
2018-05-12T15:41:20.063Z,40.83
2018-05-12T15:43:48.494Z,10.97
2018-05-12T15:46:16.720Z,9.07
2018-05-12T15:48:45.080Z,7.40
2018-05-12T15:51:14.170Z,8.20
2018-05-12T15:53:42.501Z,8.27
2018-05-12T15:56:10.805Z,8.37
2018-05-12T15:58:39.145Z,9.37
2018-05-12T16:01:08.241Z,8.80
2018-05-12T16:03:37.324Z,8.70
2018-05-12T16:06:05.639Z,9.23
2018-05-12T16:08:33.975Z,8.60
2018-05-12T16:11:02.286Z,8.43
2018-05-12T16:13:30.613Z,9.10
2018-05-12T16:15:59.686Z,14.07
2018-05-12T16:18:28.040Z,9.90
2018-05-12T16:20:58.703Z,10.23
2018-05-12T16:23:27.948Z,10.50
2018-05-12T16:25:57.236Z,13.73
2018-05-12T16:28:25.674Z,10.87
2018-05-12T16:30:54.235Z,17.93
2018-05-12T16:33:22.558Z,10.97
2018-05-12T16:35:51.805Z,11.00
2018-05-12T16:38:20.268Z,11.00
2018-05-12T16:40:48.602Z,9.80
2018-05-12T16:43:16.926Z,11.10
2018-05-12T16:45:45.274Z,10.97
2018-05-12T16:48:13.594Z,11.07
2018-05-12T16:50:42.011Z,11.30
2018-05-12T16:53:10.289Z,14.00
2018-05-12T16:55:38.628Z,13.80
2018-05-12T16:58:06.968Z,12.30
2018-05-12T17:00:36.051Z,12.53
2018-05-12T17:03:05.192Z,11.63
2018-05-12T17:05:33.534Z,11.10
2018-05-12T17:08:01.947Z,10.17
2018-05-12T17:10:30.325Z,10.83
2018-05-12T17:12:58.654Z,10.80
2018-05-12T17:15:27.036Z,10.33
2018-05-12T17:17:55.418Z,11.20
2018-05-12T17:20:23.753Z,10.53
2018-05-12T17:22:52.085Z,11.30
2018-05-12T17:25:20.388Z,11.93
2018-05-12T17:27:49.487Z,11.37
2018-05-12T17:30:17.842Z,11.17
2018-05-12T17:32:46.192Z,11.50
2018-05-12T17:35:14.522Z,12.20
2018-05-12T17:37:42.846Z,11.90
2018-05-12T17:40:11.170Z,11.57
2018-05-12T17:42:39.477Z,12.40
2018-05-12T17:45:07.827Z,10.93
2018-05-12T17:47:36.137Z,11.60
2018-05-12T17:50:04.561Z,12.17
2018-05-12T17:52:32.916Z,11.60
2018-05-12T17:55:02.055Z,12.97
2018-05-12T17:57:30.417Z,11.60
2018-05-12T17:59:58.761Z,11.30
2018-05-12T18:02:27.097Z,12.13
2018-05-12T18:04:55.409Z,12.00
2018-05-12T18:07:23.765Z,11.70
2018-05-12T18:09:52.104Z,12.17
2018-05-12T18:12:21.218Z,12.63
2018-05-12T18:14:50.287Z,12.30
2018-05-12T18:17:20.210Z,13.07
2018-05-12T18:19:49.364Z,12.90
2018-05-12T18:22:17.752Z,13.60
2018-05-12T18:24:46.095Z,12.70
2018-05-12T18:27:15.168Z,12.67
2018-05-12T18:29:43.496Z,13.47
2018-05-12T18:32:11.818Z,13.23
2018-05-12T18:34:40.160Z,15.23
2018-05-12T18:37:08.483Z,14.03
2018-05-12T18:39:36.870Z,14.57
2018-05-12T18:42:05.195Z,13.70
2018-05-12T18:44:33.534Z,16.37
2018-05-12T18:47:01.896Z,15.77
2018-05-12T18:49:30.242Z,14.13
2018-05-12T18:51:58.575Z,13.90
2018-05-12T18:54:26.956Z,13.93
2018-05-12T18:56:55.295Z,13.63
2018-05-12T18:59:23.612Z,13.53
2018-05-12T19:01:51.948Z,14.47
2018-05-12T19:04:20.275Z,15.30
2018-05-12T19:06:48.664Z,14.43
2018-05-12T19:09:16.990Z,14.07
2018-05-12T19:14:20.715Z,16.60
2018-05-12T19:16:49.092Z,15.10
2018-05-12T19:19:18.250Z,16.73
2018-05-12T19:21:46.585Z,13.83
2018-05-12T19:24:15.111Z,14.13
2018-05-12T19:26:44.132Z,14.10
2018-05-12T19:29:13.968Z,13.60
2018-05-12T19:31:44.256Z,14.53
2018-05-12T19:34:12.679Z,13.97
2018-05-12T19:36:42.384Z,13.93
2018-05-12T19:39:12.519Z,13.80
2018-05-12T19:41:42.081Z,14.90
2018-05-12T19:44:10.489Z,15.50
2018-05-12T19:46:39.150Z,15.10
2018-05-12T19:49:08.569Z,15.33
2018-05-12T19:51:39.021Z,14.73
2018-05-12T19:54:07.339Z,15.60
2018-05-12T19:56:35.727Z,15.90
2018-05-12T19:59:04.047Z,15.90
2018-05-12T20:01:32.371Z,15.93
2018-05-12T20:04:00.698Z,17.07
2018-05-12T20:06:29.026Z,17.50
2018-05-12T20:08:58.125Z,18.00
2018-05-12T20:11:26.448Z,17.33
2018-05-12T20:13:54.810Z,18.57
2018-05-12T20:16:23.160Z,18.33
2018-05-12T20:18:52.847Z,18.93
2018-05-12T20:21:21.217Z,19.27
2018-05-12T20:23:49.703Z,19.20
2018-05-12T20:26:18.129Z,19.70
2018-05-12T20:28:46.465Z,20.73
2018-05-12T20:31:14.804Z,20.70
2018-05-12T20:33:43.141Z,21.97
2018-05-12T20:36:12.586Z,22.48
2018-05-12T20:38:41.697Z,22.60
2018-05-12T20:41:10.043Z,22.70
2018-05-12T20:43:38.377Z,24.23
2018-05-12T20:46:06.714Z,22.53
2018-05-12T20:48:35.071Z,23.03
2018-05-12T20:51:03.438Z,22.93
2018-05-12T20:53:31.800Z,24.87
2018-05-12T20:56:00.114Z,23.77
2018-05-12T20:58:28.545Z,25.07
2018-05-12T21:00:56.831Z,23.90
2018-05-12T21:03:25.178Z,23.90
2018-05-12T21:05:53.513Z,23.17
2018-05-12T21:08:21.847Z,23.67
2018-05-12T21:10:50.984Z,24.37
2018-05-12T21:13:19.347Z,24.27
2018-05-12T21:15:47.677Z,23.80
2018-05-12T21:18:16.059Z,22.50
2018-05-12T21:20:44.399Z,24.77
2018-05-12T21:23:12.724Z,23.17
2018-05-12T21:25:41.056Z,22.43
2018-05-12T21:28:10.164Z,24.53
2018-05-12T21:30:38.478Z,22.63
2018-05-12T21:33:06.806Z,23.03
2018-05-12T21:35:35.155Z,23.57
2018-05-12T21:38:03.469Z,23.00
2018-05-12T21:40:32.586Z,23.87
2018-05-12T21:43:00.898Z,24.90
2018-05-12T21:45:29.240Z,24.37
2018-05-12T21:47:58.312Z,24.43
2018-05-12T21:50:26.648Z,25.10
2018-05-12T21:52:54.978Z,23.07
2018-05-12T21:55:23.326Z,24.90
2018-05-12T21:57:51.630Z,25.63
2018-05-12T22:00:19.953Z,25.03
2018-05-12T22:02:48.293Z,24.77
2018-05-12T22:05:16.603Z,25.60
2018-05-12T22:07:45.761Z,24.97
2018-05-12T22:10:14.042Z,25.50
2018-05-12T22:12:42.407Z,26.90
2018-05-12T22:15:10.716Z,26.07
2018-05-12T22:17:39.045Z,26.97
2018-05-12T22:20:07.352Z,26.77
2018-05-12T22:22:35.717Z,26.60
2018-05-12T22:25:04.051Z,28.40
2018-05-12T22:27:32.384Z,28.27
2018-05-12T22:30:00.693Z,27.30
2018-05-12T22:32:30.130Z,28.10
2018-05-12T22:34:58.801Z,27.43
2018-05-12T22:37:28.760Z,29.70
2018-05-12T22:39:57.275Z,29.07
2018-05-12T22:42:25.698Z,29.03
2018-05-12T22:44:54.213Z,28.93
2018-05-12T22:47:23.507Z,29.73
2018-05-12T22:49:51.810Z,29.93
2018-05-12T22:52:20.903Z,30.17
2018-05-12T22:54:49.492Z,30.00
2018-05-12T22:57:17.831Z,30.27
2018-05-12T22:59:46.181Z,31.80
2018-05-12T23:02:14.489Z,31.00
2018-05-12T23:04:42.808Z,29.53
2018-05-12T23:07:11.907Z,30.43
2018-05-12T23:09:40.994Z,30.00
2018-05-12T23:12:10.146Z,30.03
2018-05-12T23:14:38.473Z,29.53
2018-05-12T23:17:06.802Z,30.43
2018-05-12T23:19:35.122Z,29.07
2018-05-12T23:22:04.968Z,30.13
2018-05-12T23:24:34.056Z,30.23
2018-05-12T23:27:03.212Z,29.87
2018-05-12T23:29:31.506Z,27.90
2018-05-12T23:31:59.863Z,29.17
2018-05-12T23:34:28.186Z,28.57
2018-05-12T23:36:56.519Z,28.20
2018-05-12T23:39:24.862Z,28.63
2018-05-12T23:41:53.933Z,26.67
2018-05-12T23:44:22.278Z,26.97
2018-05-12T23:46:50.584Z,28.93
2018-05-12T23:49:18.901Z,27.70
2018-05-12T23:51:47.979Z,28.53
2018-05-12T23:54:17.079Z,27.47
2018-05-12T23:56:45.384Z,26.37
2018-05-12T23:59:14.494Z,26.23
